createdAt,value
2022-10-11T00:01:22.047Z,56.08
2022-10-11T00:03:55.149Z,56.10
2022-10-11T00:06:25.629Z,56.13
2022-10-11T00:08:56.051Z,55.88
2022-10-11T00:11:26.604Z,55.78
2022-10-11T00:13:57.339Z,55.43
2022-10-11T00:16:27.918Z,55.36
2022-10-11T00:19:01.104Z,55.27
2022-10-11T00:21:31.898Z,55.05
2022-10-11T00:24:02.732Z,54.82
2022-10-11T00:26:33.273Z,54.99
2022-10-11T00:29:03.829Z,54.67
2022-10-11T00:31:35.783Z,54.70
2022-10-11T00:34:10.410Z,54.51
2022-10-11T00:36:41.251Z,54.60
2022-10-11T00:39:14.307Z,54.51
2022-10-11T00:41:45.720Z,54.36
2022-10-11T00:44:19.586Z,54.44
2022-10-11T00:46:56.246Z,54.16
2022-10-11T00:49:37.147Z,54.28
2022-10-11T00:52:14.708Z,54.15
2022-10-11T00:54:47.551Z,54.03
2022-10-11T00:57:22.855Z,53.79
2022-10-11T00:59:55.742Z,53.57
2022-10-11T01:02:27.187Z,53.43
2022-10-11T01:05:25.072Z,53.29
2022-10-11T01:07:51.303Z,53.70
2022-10-11T01:10:21.817Z,53.24
2022-10-11T01:12:59.490Z,53.30
2022-10-11T01:15:37.981Z,53.27
2022-10-11T01:18:17.621Z,53.75
2022-10-11T01:21:01.018Z,53.80
2022-10-11T01:23:58.642Z,53.73
2022-10-11T01:26:53.769Z,53.88
2022-10-11T01:29:35.849Z,54.03
2022-10-11T01:32:19.038Z,53.76
2022-10-11T01:34:59.624Z,53.79
2022-10-11T01:37:36.638Z,53.84
2022-10-11T01:40:12.495Z,54.06
2022-10-11T01:42:44.836Z,53.96
2022-10-11T01:45:19.895Z,53.98
2022-10-11T01:48:04.933Z,53.88
2022-10-11T01:50:47.904Z,53.88
2022-10-11T01:53:34.093Z,53.91
2022-10-11T01:56:17.863Z,53.92
2022-10-11T01:59:01.308Z,53.94
2022-10-11T02:01:45.665Z,54.08
2022-10-11T02:04:24.431Z,53.95
2022-10-11T02:07:02.549Z,54.12
2022-10-11T02:09:39.381Z,53.97
2022-10-11T02:12:13.480Z,53.92
2022-10-11T02:14:48.371Z,54.02
2022-10-11T02:17:22.327Z,53.87
2022-10-11T02:19:59.502Z,53.95
2022-10-11T02:22:33.773Z,54.10
2022-10-11T02:25:08.513Z,54.01
2022-10-11T02:27:42.812Z,54.13
2022-10-11T02:30:14.427Z,54.49
2022-10-11T02:32:47.623Z,54.08
2022-10-11T02:35:21.921Z,54.06
2022-10-11T02:37:56.704Z,54.18
2022-10-11T02:40:32.567Z,54.17
2022-10-11T02:43:07.629Z,54.11
2022-10-11T02:45:41.501Z,53.90
2022-10-11T02:48:14.599Z,53.93
2022-10-11T02:50:47.938Z,54.09
2022-10-11T02:53:18.570Z,54.05
2022-10-11T02:55:49.754Z,54.31
2022-10-11T02:58:20.385Z,53.74
2022-10-11T03:00:51.324Z,53.96
2022-10-11T03:03:21.927Z,54.15
2022-10-11T03:06:00.894Z,54.02
2022-10-11T03:08:31.653Z,54.45
2022-10-11T03:11:02.106Z,54.50
2022-10-11T03:13:32.695Z,54.67
2022-10-11T03:16:03.885Z,54.65
2022-10-11T03:18:35.702Z,54.89
2022-10-11T03:21:08.845Z,54.94
2022-10-11T03:23:40.230Z,55.32
2022-10-11T03:26:10.689Z,55.67
2022-10-11T03:28:41.409Z,55.36
2022-10-11T03:31:12.311Z,55.68
2022-10-11T03:33:42.999Z,55.76
2022-10-11T03:36:16.383Z,55.90
2022-10-11T03:38:47.019Z,55.79
2022-10-11T03:41:17.496Z,56.17
2022-10-11T03:43:47.943Z,56.29
2022-10-11T03:46:18.515Z,56.24
2022-10-11T03:48:49.113Z,56.29
2022-10-11T03:51:22.218Z,56.25
2022-10-11T03:53:52.812Z,56.23
2022-10-11T03:56:23.341Z,56.54
2022-10-11T03:58:53.890Z,56.22
2022-10-11T04:01:24.524Z,56.63
2022-10-11T04:03:58.403Z,56.89
2022-10-11T04:06:31.608Z,56.81
2022-10-11T04:09:02.445Z,56.75
2022-10-11T04:11:32.973Z,56.72
2022-10-11T04:14:03.661Z,56.79
2022-10-11T04:16:34.373Z,57.00
2022-10-11T04:19:05.418Z,56.98
2022-10-11T04:21:38.542Z,57.08
2022-10-11T04:24:09.648Z,56.89
2022-10-11T04:26:40.280Z,57.14
2022-10-11T04:29:10.860Z,57.04
2022-10-11T04:31:41.456Z,57.26
2022-10-11T04:34:12.054Z,57.34
2022-10-11T04:36:49.599Z,57.39
2022-10-11T04:39:20.965Z,57.59
2022-10-11T04:41:51.536Z,57.70
2022-10-11T04:44:22.074Z,58.14
2022-10-11T04:46:52.589Z,58.38
2022-10-11T04:49:23.265Z,58.46
2022-10-11T04:51:56.319Z,59.00
2022-10-11T04:54:27.029Z,59.17
2022-10-11T04:56:57.652Z,59.13
2022-10-11T04:59:28.167Z,59.09
2022-10-11T05:01:58.645Z,59.45
2022-10-11T05:04:29.292Z,59.66
2022-10-11T05:07:02.464Z,59.69
2022-10-11T05:09:33.060Z,59.87
2022-10-11T05:12:03.600Z,59.82
2022-10-11T05:14:34.117Z,59.66
2022-10-11T05:17:04.632Z,59.95
2022-10-11T05:19:35.413Z,59.95
2022-10-11T05:22:08.706Z,60.11
2022-10-11T05:24:39.312Z,60.05
2022-10-11T05:27:09.860Z,59.92
2022-10-11T05:29:40.361Z,60.07
2022-10-11T05:32:10.794Z,60.37
2022-10-11T05:34:41.297Z,60.38
2022-10-11T05:37:14.483Z,60.17
2022-10-11T05:39:45.186Z,60.39
2022-10-11T05:42:15.907Z,60.09
2022-10-11T05:44:46.548Z,60.17
2022-10-11T05:47:17.053Z,60.01
2022-10-11T05:49:47.630Z,60.15
2022-10-11T05:52:21.774Z,60.31
2022-10-11T05:54:52.403Z,60.48
2022-10-11T05:57:22.980Z,60.26
2022-10-11T05:59:53.542Z,60.20
2022-10-11T06:02:23.985Z,60.17
2022-10-11T06:04:54.416Z,60.01
2022-10-11T06:07:27.583Z,59.97
2022-10-11T06:09:58.177Z,59.95
2022-10-11T06:12:28.730Z,59.79
2022-10-11T06:14:59.414Z,59.64
2022-10-11T06:17:30.009Z,59.27
2022-10-11T06:20:01.118Z,59.10
2022-10-11T06:22:34.459Z,58.72
2022-10-11T06:25:05.332Z,58.53
2022-10-11T06:27:36.132Z,58.51
2022-10-11T06:30:08.060Z,58.06
2022-10-11T06:32:38.655Z,58.16
2022-10-11T06:35:10.609Z,57.18
2022-10-11T06:37:43.774Z,57.26
2022-10-11T06:40:15.365Z,56.05
2022-10-11T06:42:45.919Z,55.33
2022-10-11T06:45:16.570Z,55.05
2022-10-11T06:47:47.156Z,54.69
2022-10-11T06:50:25.953Z,54.54
2022-10-11T06:53:11.126Z,53.72
2022-10-11T06:55:42.016Z,53.20
2022-10-11T06:58:12.594Z,53.21
2022-10-11T07:00:43.360Z,52.91
2022-10-11T07:03:14.163Z,52.74
2022-10-11T07:05:44.771Z,52.13
2022-10-11T07:08:17.877Z,51.96
2022-10-11T07:10:48.422Z,51.13
2022-10-11T07:13:18.930Z,51.30
2022-10-11T07:15:49.456Z,51.54
2022-10-11T07:18:20.067Z,51.25
2022-10-11T07:20:50.917Z,50.98
2022-10-11T07:23:24.227Z,51.07
2022-10-11T07:25:55.804Z,51.04
2022-10-11T07:28:26.863Z,51.12
2022-10-11T07:30:57.631Z,50.92
2022-10-11T07:33:28.276Z,50.80
2022-10-11T07:36:00.830Z,50.93
2022-10-11T07:38:34.487Z,50.30
2022-10-11T07:41:08.847Z,51.07
2022-10-11T07:43:39.847Z,51.16
2022-10-11T07:46:10.870Z,51.01
2022-10-11T07:48:43.094Z,50.96
2022-10-11T07:51:16.091Z,51.49
2022-10-11T07:53:50.722Z,50.35
2022-10-11T07:56:23.704Z,49.98
2022-10-11T07:58:55.659Z,49.84
2022-10-11T08:01:26.784Z,49.31
2022-10-11T08:03:57.548Z,48.41
2022-10-11T08:06:32.971Z,46.24
2022-10-11T08:09:06.737Z,44.63
2022-10-11T08:11:39.572Z,43.29
2022-10-11T08:14:11.625Z,43.28
2022-10-11T08:16:42.753Z,43.14
2022-10-11T08:19:13.997Z,43.52
2022-10-11T08:21:44.970Z,43.35
2022-10-11T08:24:21.003Z,41.72
2022-10-11T08:26:51.804Z,42.38
2022-10-11T08:29:22.516Z,41.40
2022-10-11T08:31:53.056Z,40.60
2022-10-11T08:34:23.598Z,39.79
2022-10-11T08:36:54.187Z,39.51
2022-10-11T08:39:27.443Z,38.92
2022-10-11T08:42:03.670Z,38.75
2022-10-11T08:45:09.074Z,38.26
2022-10-11T08:47:39.893Z,38.26
2022-10-11T08:50:18.742Z,38.64
2022-10-11T08:52:53.796Z,36.77
2022-10-11T08:55:44.188Z,37.61
2022-10-11T08:58:18.190Z,38.47
2022-10-11T09:00:51.215Z,39.30
2022-10-11T09:03:37.867Z,39.37
2022-10-11T09:06:20.287Z,39.99
2022-10-11T09:09:02.120Z,40.15
2022-10-11T09:11:47.555Z,40.74
2022-10-11T09:14:38.075Z,41.61
2022-10-11T09:17:20.770Z,41.97
2022-10-11T09:20:06.055Z,42.08
2022-10-11T09:22:44.737Z,42.46
2022-10-11T09:25:25.215Z,43.53
2022-10-11T09:28:09.478Z,43.75
2022-10-11T09:30:44.096Z,44.23
2022-10-11T09:33:20.111Z,44.84
2022-10-11T09:35:52.830Z,45.27
2022-10-11T09:38:35.542Z,45.64
2022-10-11T09:41:14.778Z,46.17
2022-10-11T09:43:52.595Z,46.26
2022-10-11T09:46:26.878Z,46.63
2022-10-11T09:48:59.407Z,46.71
2022-10-11T09:51:31.751Z,47.13
2022-10-11T09:54:05.041Z,47.05
2022-10-11T09:56:43.095Z,47.26
2022-10-11T09:59:28.234Z,47.62
2022-10-11T10:02:21.783Z,47.25
2022-10-11T10:05:16.714Z,47.31
2022-10-11T10:08:08.278Z,47.73
2022-10-11T10:10:44.640Z,47.85
2022-10-11T10:13:24.120Z,47.42
2022-10-11T10:15:59.803Z,47.42
2022-10-11T10:18:35.933Z,47.10
2022-10-11T10:21:10.898Z,47.88
2022-10-11T10:23:42.809Z,47.96
2022-10-11T10:26:16.157Z,47.93
2022-10-11T10:29:02.606Z,47.91
2022-10-11T10:32:09.164Z,47.86
2022-10-11T10:34:38.349Z,48.65
2022-10-11T10:37:25.807Z,48.40
2022-10-11T10:40:02.956Z,48.63
2022-10-11T10:42:33.479Z,48.51
2022-10-11T10:45:08.421Z,48.61
2022-10-11T10:48:08.577Z,48.38
2022-10-11T10:50:52.432Z,48.55
2022-10-11T10:53:30.585Z,48.54
2022-10-11T10:56:09.679Z,48.17
2022-10-11T10:58:55.986Z,48.04
2022-10-11T11:01:29.944Z,48.23
2022-10-11T11:04:13.395Z,48.20
2022-10-11T11:06:52.605Z,47.95
2022-10-11T11:09:36.380Z,48.11
2022-10-11T11:12:23.970Z,48.50
2022-10-11T11:15:02.639Z,48.77
2022-10-11T11:17:48.322Z,49.53
2022-10-11T11:20:31.413Z,49.55
2022-10-11T11:23:09.934Z,49.52
2022-10-11T11:25:49.993Z,49.65
2022-10-11T11:28:51.183Z,49.30
2022-10-11T11:31:42.880Z,49.60
2022-10-11T11:34:24.081Z,49.86
2022-10-11T11:37:01.635Z,49.47
2022-10-11T11:39:37.545Z,49.47
2022-10-11T11:42:14.990Z,49.54
2022-10-11T11:44:49.929Z,50.11
2022-10-11T11:47:25.176Z,49.86
2022-10-11T11:50:01.869Z,50.13
2022-10-11T11:52:44.279Z,50.28
2022-10-11T11:55:23.249Z,50.04
2022-10-11T11:58:06.943Z,50.05
2022-10-11T12:00:43.532Z,49.92
2022-10-11T12:03:19.427Z,50.23
2022-10-11T12:06:19.702Z,50.24
2022-10-11T12:09:02.077Z,49.85
2022-10-11T12:11:43.692Z,50.26
2022-10-11T12:14:28.812Z,50.19
2022-10-11T12:17:27.394Z,50.26
2022-10-11T12:20:15.574Z,50.20
2022-10-11T12:23:00.364Z,50.08
2022-10-11T12:25:44.453Z,50.34
2022-10-11T12:28:51.352Z,50.39
2022-10-11T12:31:25.504Z,50.00
2022-10-11T12:34:18.846Z,50.13
2022-10-11T12:36:51.091Z,50.10
2022-10-11T12:39:47.032Z,50.29
2022-10-11T12:42:30.346Z,50.34
2022-10-11T12:45:30.437Z,49.91
2022-10-11T12:48:13.585Z,49.41
2022-10-11T12:50:56.122Z,49.82
2022-10-11T12:53:57.697Z,49.62
2022-10-11T12:56:50.850Z,49.81
2022-10-11T12:59:26.385Z,49.73
2022-10-11T13:01:58.643Z,49.55
2022-10-11T13:04:31.980Z,49.66
2022-10-11T13:07:07.760Z,49.97
2022-10-11T13:09:44.147Z,49.89
2022-10-11T13:12:21.100Z,49.85
2022-10-11T13:15:04.194Z,50.14
2022-10-11T13:17:38.817Z,50.58
2022-10-11T13:20:16.336Z,50.67
2022-10-11T13:22:49.888Z,50.29
2022-10-11T13:25:23.900Z,50.45
2022-10-11T13:27:56.789Z,50.52
2022-10-11T13:30:32.647Z,50.98
2022-10-11T13:33:03.781Z,50.62
2022-10-11T13:35:37.282Z,51.05
2022-10-11T13:38:12.007Z,50.96
2022-10-11T13:40:43.843Z,50.96
2022-10-11T13:43:17.536Z,50.49
2022-10-11T13:45:51.350Z,50.51
2022-10-11T13:48:22.009Z,50.82
2022-10-11T13:51:11.217Z,51.35
2022-10-11T13:53:59.191Z,50.52
2022-10-11T13:56:30.629Z,50.14
2022-10-11T13:59:03.544Z,50.35
2022-10-11T14:01:43.736Z,50.38
2022-10-11T14:04:16.215Z,50.12
2022-10-11T14:06:49.855Z,50.95
2022-10-11T14:09:27.151Z,50.63
2022-10-11T14:11:58.560Z,50.59
2022-10-11T14:14:45.217Z,51.38
2022-10-11T14:17:21.176Z,50.97
2022-10-11T14:20:11.562Z,51.58
2022-10-11T14:22:42.655Z,51.34
2022-10-11T14:25:13.262Z,51.39
2022-10-11T14:27:43.840Z,51.02
2022-10-11T14:30:27.625Z,51.03
2022-10-11T14:33:04.209Z,51.36
2022-10-11T14:35:38.460Z,51.01
2022-10-11T14:38:09.052Z,51.24
2022-10-11T14:40:39.843Z,51.14
2022-10-11T14:43:10.375Z,51.34
2022-10-11T14:45:41.099Z,51.37
2022-10-11T14:48:15.607Z,51.46
2022-10-11T14:50:54.857Z,51.11
2022-10-11T14:53:25.112Z,51.51
2022-10-11T14:55:56.312Z,51.61
2022-10-11T14:58:27.083Z,51.01
2022-10-11T15:00:57.634Z,51.47
2022-10-11T15:03:30.795Z,51.37
2022-10-11T15:06:01.938Z,51.16
2022-10-11T15:08:32.488Z,51.46
2022-10-11T15:11:03.068Z,51.52
2022-10-11T15:13:33.638Z,51.72
2022-10-11T15:16:04.460Z,51.50
2022-10-11T15:18:38.119Z,51.64
2022-10-11T15:21:09.364Z,51.87
2022-10-11T15:23:39.954Z,51.78
2022-10-11T15:26:12.229Z,52.01
2022-10-11T15:28:43.022Z,51.81
2022-10-11T15:31:14.163Z,52.21
2022-10-11T15:33:47.360Z,51.82
2022-10-11T15:36:19.722Z,52.18
2022-10-11T15:38:51.458Z,52.09
2022-10-11T15:41:24.152Z,52.19
2022-10-11T15:43:54.941Z,52.38
2022-10-11T15:46:26.036Z,52.16
2022-10-11T15:49:02.188Z,52.53
2022-10-11T15:51:35.064Z,52.64
2022-10-11T15:54:06.726Z,52.55
2022-10-11T15:56:37.655Z,52.70
2022-10-11T15:59:08.227Z,52.85
2022-10-11T16:01:38.841Z,52.95
2022-10-11T16:04:12.898Z,53.33
2022-10-11T16:06:44.027Z,53.06
2022-10-11T16:09:14.539Z,53.10
2022-10-11T16:11:45.084Z,53.14
2022-10-11T16:14:15.635Z,53.32
2022-10-11T16:16:46.256Z,53.55
2022-10-11T16:19:19.577Z,53.63
2022-10-11T16:21:50.133Z,53.94
2022-10-11T16:24:21.008Z,53.99
2022-10-11T16:26:51.579Z,53.82
2022-10-11T16:29:22.308Z,53.96
2022-10-11T16:31:52.777Z,54.38
2022-10-11T16:34:25.988Z,54.21
2022-10-11T16:36:56.558Z,54.58
2022-10-11T16:39:27.137Z,54.69
2022-10-11T16:41:57.728Z,54.73
2022-10-11T16:44:28.374Z,54.94
2022-10-11T16:46:59.050Z,54.62
2022-10-11T16:49:32.532Z,55.02
2022-10-11T16:52:04.752Z,55.30
2022-10-11T16:54:35.544Z,54.90
2022-10-11T16:57:06.384Z,55.41
2022-10-11T16:59:36.945Z,55.07
2022-10-11T17:02:08.428Z,55.35
2022-10-11T17:04:41.653Z,55.12
2022-10-11T17:07:13.212Z,55.61
2022-10-11T17:09:44.545Z,55.46
2022-10-11T17:12:17.205Z,55.34
2022-10-11T17:14:48.026Z,55.46
2022-10-11T17:17:18.804Z,55.64
2022-10-11T17:19:52.407Z,56.08
2022-10-11T17:22:23.291Z,55.71
2022-10-11T17:24:56.984Z,56.05
2022-10-11T17:27:27.543Z,56.47
2022-10-11T17:29:58.366Z,56.43
2022-10-11T17:32:29.149Z,56.65
2022-10-11T17:35:03.832Z,56.67
2022-10-11T17:37:34.663Z,56.87
2022-10-11T17:40:05.274Z,56.92
2022-10-11T17:42:35.885Z,57.20
2022-10-11T17:45:07.153Z,57.53
2022-10-11T17:47:37.829Z,57.73
2022-10-11T17:50:11.551Z,57.67
2022-10-11T17:52:42.507Z,58.21
2022-10-11T17:55:13.322Z,58.74
2022-10-11T17:57:44.086Z,58.63
2022-10-11T18:00:16.265Z,59.04
2022-10-11T18:02:46.994Z,59.12
2022-10-11T18:05:20.364Z,59.72
2022-10-11T18:07:54.917Z,60.00
2022-10-11T18:10:25.852Z,60.39
2022-10-11T18:12:57.158Z,60.93
2022-10-11T18:15:27.836Z,60.87
2022-10-11T18:18:00.889Z,61.23
2022-10-11T18:20:37.125Z,61.40
2022-10-11T18:23:08.291Z,61.88
2022-10-11T18:25:39.040Z,62.09
2022-10-11T18:28:09.768Z,62.25
2022-10-11T18:30:44.761Z,62.53
2022-10-11T18:33:15.713Z,62.51
2022-10-11T18:35:48.907Z,62.65
2022-10-11T18:38:19.582Z,62.97
2022-10-11T18:40:50.147Z,62.99
2022-10-11T18:43:20.729Z,63.33
2022-10-11T18:45:51.418Z,63.50
2022-10-11T18:48:22.102Z,63.74
2022-10-11T18:51:08.933Z,63.93
2022-10-11T18:53:40.795Z,64.04
2022-10-11T18:56:13.254Z,64.30
2022-10-11T18:58:45.185Z,64.64
2022-10-11T19:01:18.906Z,64.63
2022-10-11T19:03:52.621Z,64.69
2022-10-11T19:06:28.149Z,65.05
2022-10-11T19:09:02.008Z,64.94
2022-10-11T19:11:34.047Z,65.15
2022-10-11T19:14:07.213Z,64.93
2022-10-11T19:16:40.574Z,65.27
2022-10-11T19:19:13.137Z,65.35
2022-10-11T19:21:48.884Z,65.77
2022-10-11T19:24:20.479Z,65.71
2022-10-11T19:26:53.195Z,66.24
2022-10-11T19:29:26.410Z,66.32
2022-10-11T19:31:58.925Z,66.40
2022-10-11T19:34:31.937Z,66.50
2022-10-11T19:37:05.268Z,66.57
2022-10-11T19:39:35.902Z,66.53
2022-10-11T19:42:06.615Z,66.75
2022-10-11T19:44:39.683Z,66.87
2022-10-11T19:47:10.640Z,66.87
2022-10-11T19:49:41.277Z,67.33
2022-10-11T19:52:14.594Z,67.49
2022-10-11T19:54:45.213Z,67.59
2022-10-11T19:57:15.922Z,67.78
2022-10-11T19:59:46.512Z,67.69
2022-10-11T20:02:17.638Z,68.01
2022-10-11T20:04:53.204Z,68.62
2022-10-11T20:07:26.734Z,68.25
2022-10-11T20:09:57.305Z,68.18
2022-10-11T20:12:29.562Z,68.31
2022-10-11T20:15:00.245Z,68.44
2022-10-11T20:17:48.366Z,68.58
2022-10-11T20:20:20.122Z,68.23
2022-10-11T20:22:53.714Z,68.50
2022-10-11T20:25:24.651Z,68.36
2022-10-11T20:27:55.254Z,68.61
2022-10-11T20:30:25.966Z,68.51
2022-10-11T20:32:56.489Z,68.79
2022-10-11T20:35:27.128Z,68.93
2022-10-11T20:38:00.307Z,68.87
2022-10-11T20:40:30.844Z,68.98
2022-10-11T20:43:01.379Z,69.12
2022-10-11T20:45:31.935Z,69.23
2022-10-11T20:48:02.448Z,69.14
2022-10-11T20:50:33.039Z,69.52
2022-10-11T20:53:06.266Z,69.36
2022-10-11T20:55:36.795Z,69.31
2022-10-11T20:58:07.361Z,69.49
2022-10-11T21:00:37.898Z,69.54
2022-10-11T21:03:09.096Z,69.45
2022-10-11T21:05:39.974Z,69.41
2022-10-11T21:08:13.140Z,69.41
2022-10-11T21:10:43.736Z,69.47
2022-10-11T21:13:14.291Z,69.59
2022-10-11T21:15:44.914Z,69.62
2022-10-11T21:18:15.882Z,69.65
2022-10-11T21:20:47.799Z,69.38
2022-10-11T21:23:21.934Z,69.38
2022-10-11T21:25:52.480Z,69.31
2022-10-11T21:28:23.126Z,69.12
2022-10-11T21:30:53.768Z,68.93
2022-10-11T21:33:24.322Z,69.03
2022-10-11T21:35:55.354Z,68.73
2022-10-11T21:38:28.842Z,68.97
2022-10-11T21:40:59.364Z,68.64
2022-10-11T21:43:29.891Z,68.80
2022-10-11T21:46:00.512Z,68.92
2022-10-11T21:48:32.575Z,68.99
2022-10-11T21:51:03.246Z,65.08
2022-10-11T21:53:36.845Z,64.23
2022-10-11T21:56:08.047Z,67.45
2022-10-11T21:58:38.598Z,72.35
2022-10-11T22:01:09.653Z,73.04
2022-10-11T22:03:40.258Z,78.02
2022-10-11T22:06:10.892Z,80.95
2022-10-11T22:08:44.791Z,81.56
2022-10-11T22:11:15.781Z,83.21
2022-10-11T22:13:46.353Z,84.33
2022-10-11T22:16:17.355Z,84.39
2022-10-11T22:18:47.985Z,87.45
2022-10-11T22:21:20.565Z,89.17
2022-10-11T22:23:56.213Z,90.69
2022-10-11T22:26:30.121Z,92.02
2022-10-11T22:29:01.440Z,92.90
2022-10-11T22:31:32.303Z,90.33
2022-10-11T22:34:04.229Z,87.02
2022-10-11T22:36:34.871Z,85.04
2022-10-11T22:39:08.478Z,84.71
2022-10-11T22:41:39.770Z,88.82
2022-10-11T22:44:15.562Z,90.95
2022-10-11T22:46:47.824Z,93.42
2022-10-11T22:49:18.626Z,93.32
2022-10-11T22:51:49.675Z,90.21
2022-10-11T22:54:22.855Z,87.91
2022-10-11T22:56:53.545Z,87.11
2022-10-11T22:59:24.184Z,87.13
2022-10-11T23:01:54.774Z,88.90
2022-10-11T23:04:25.496Z,93.06
2022-10-11T23:06:56.128Z,94.75
2022-10-11T23:09:31.236Z,94.83
2022-10-11T23:12:02.091Z,94.92
2022-10-11T23:14:32.633Z,94.16
2022-10-11T23:17:03.169Z,91.33
2022-10-11T23:19:33.756Z,88.71
2022-10-11T23:22:04.333Z,87.69
2022-10-11T23:24:37.788Z,86.65
2022-10-11T23:27:08.457Z,89.10
2022-10-11T23:29:40.342Z,92.71
2022-10-11T23:32:11.582Z,95.25
2022-10-11T23:34:42.170Z,96.00
2022-10-11T23:37:12.735Z,94.22
2022-10-11T23:39:45.886Z,93.36
2022-10-11T23:42:16.544Z,90.04
2022-10-11T23:44:47.046Z,88.65
2022-10-11T23:47:17.622Z,89.01
2022-10-11T23:49:48.265Z,87.56
2022-10-11T23:52:18.859Z,89.53
2022-10-11T23:54:52.184Z,89.97
2022-10-11T23:57:22.731Z,92.96
2022-10-11T23:59:53.260Z,95.18
